Terminal Aerodrome Forecast
Issued by NWS Sioux Falls, SD

Home | Current Version | Previous Version | Graphics & Text | Print | Product List | Glossary On
Versions: 1 2 3 4 5 6 7 8 9 10 11 12 13 14 15 16
000
FTUS43 KFSD 262002 AAA
TAFHON
TAF AMD
KHON 262002Z 2620/2718 04012G19KT P6SM VCTS BKN060CB
     FM262200 23009KT P6SM BKN150
     FM270000 12008KT P6SM SCT150
     FM270300 14005KT P6SM BKN150
     FM271500 02005KT P6SM BKN040=

USA.gov is the U.S. government's official web portal to all federal, state and local government web resources and services.